createdAt,value
2023-01-12T00:01:57.580Z,18.02
2023-01-12T00:04:25.515Z,17.92
2023-01-12T00:06:53.844Z,16.25
2023-01-12T00:09:21.825Z,16.27
2023-01-12T00:11:49.749Z,21.52
2023-01-12T00:14:17.793Z,13.45
2023-01-12T00:16:45.651Z,15.80
2023-01-12T00:19:16.588Z,18.95
2023-01-12T00:21:59.111Z,17.17
2023-01-12T00:24:28.342Z,20.15
2023-01-12T00:26:57.229Z,17.98
2023-01-12T00:29:26.259Z,15.60
2023-01-12T00:31:54.942Z,20.05
2023-01-12T00:34:24.592Z,20.35
2023-01-12T00:36:52.364Z,20.73
2023-01-12T00:39:20.439Z,17.90
2023-01-12T00:42:20.781Z,20.08
2023-01-12T00:45:06.057Z,22.35
2023-01-12T00:47:34.231Z,24.42
2023-01-12T00:50:03.437Z,35.30
2023-01-12T00:52:32.045Z,19.98
2023-01-12T00:55:01.214Z,20.40
2023-01-12T00:57:29.646Z,23.33
2023-01-12T00:59:59.369Z,33.63
2023-01-12T01:02:27.924Z,29.63
2023-01-12T01:04:55.916Z,23.83
2023-01-12T01:07:25.150Z,28.45
2023-01-12T01:09:53.066Z,32.63
2023-01-12T01:12:21.188Z,24.60
2023-01-12T01:14:49.371Z,29.40
2023-01-12T01:17:17.259Z,26.65
2023-01-12T01:19:45.143Z,27.05
2023-01-12T01:22:13.458Z,36.33
2023-01-12T01:24:43.313Z,25.98
2023-01-12T01:27:11.297Z,24.73
2023-01-12T01:29:39.085Z,30.33
2023-01-12T01:32:07.466Z,24.55
2023-01-12T01:34:35.791Z,23.63
2023-01-12T01:37:03.574Z,23.92
2023-01-12T01:39:31.347Z,29.40
2023-01-12T01:42:01.122Z,25.75
2023-01-12T01:44:50.334Z,26.42
2023-01-12T01:47:24.832Z,27.88
2023-01-12T01:49:54.153Z,20.58
2023-01-12T01:52:24.900Z,22.77
2023-01-12T01:54:54.724Z,21.92
2023-01-12T01:57:25.017Z,17.13
2023-01-12T01:59:55.063Z,17.95
2023-01-12T02:02:23.925Z,20.67
2023-01-12T02:04:51.894Z,16.80
2023-01-12T02:07:19.593Z,23.80
2023-01-12T02:09:47.371Z,13.02
2023-01-12T02:12:33.006Z,22.08
2023-01-12T02:15:21.982Z,18.45
2023-01-12T02:17:59.365Z,17.33
2023-01-12T02:20:39.931Z,15.70
2023-01-12T02:23:53.535Z,21.85
2023-01-12T02:26:46.794Z,20.45
2023-01-12T02:29:36.048Z,17.63
2023-01-12T02:32:08.198Z,14.13
2023-01-12T02:34:41.703Z,10.90
2023-01-12T02:37:14.721Z,9.88
2023-01-12T02:39:45.391Z,10.73
2023-01-12T02:42:36.677Z,6.47
2023-01-12T02:45:10.807Z,7.57
2023-01-12T02:47:46.031Z,9.52
2023-01-12T02:50:19.239Z,8.10
2023-01-12T02:52:49.150Z,9.70
2023-01-12T02:55:17.921Z,8.45
2023-01-12T02:57:46.388Z,8.77
2023-01-12T03:00:16.857Z,10.45
2023-01-12T03:02:46.196Z,6.88
2023-01-12T03:05:14.049Z,7.32
2023-01-12T03:07:46.993Z,7.50
2023-01-12T03:10:22.174Z,7.88
2023-01-12T03:12:52.233Z,11.02
2023-01-12T03:15:20.582Z,10.75
2023-01-12T03:17:54.033Z,11.10
2023-01-12T03:20:25.398Z,11.50
2023-01-12T03:22:55.979Z,16.13
2023-01-12T03:25:25.234Z,12.02
2023-01-12T03:27:55.537Z,21.52
2023-01-12T03:30:27.524Z,19.00
2023-01-12T03:32:56.891Z,16.05
2023-01-12T03:35:27.514Z,17.58
2023-01-12T03:37:58.692Z,15.20
2023-01-12T03:40:29.352Z,14.60
2023-01-12T03:43:00.324Z,12.00
2023-01-12T03:45:31.697Z,15.20
2023-01-12T03:48:04.343Z,16.65
2023-01-12T03:50:36.242Z,20.77
2023-01-12T03:53:05.593Z,18.92
2023-01-12T03:55:34.059Z,11.40
2023-01-12T03:58:01.934Z,10.05
2023-01-12T04:00:30.231Z,15.63
2023-01-12T04:03:06.823Z,15.35
2023-01-12T04:05:34.711Z,18.27
2023-01-12T04:08:02.455Z,9.50
2023-01-12T04:10:30.551Z,15.63
2023-01-12T04:12:58.402Z,7.20
2023-01-12T04:15:26.271Z,12.27
2023-01-12T04:17:54.112Z,10.32
2023-01-12T04:20:23.860Z,15.55
2023-01-12T04:22:50.754Z,9.38
2023-01-12T04:25:19.921Z,13.52
2023-01-12T04:27:49.952Z,8.52
2023-01-12T04:30:19.160Z,11.25
2023-01-12T04:32:47.398Z,11.27
2023-01-12T04:35:16.393Z,12.07
2023-01-12T04:37:45.877Z,10.73
2023-01-12T04:40:15.417Z,15.35
2023-01-12T04:43:10.008Z,12.75
2023-01-12T04:45:39.278Z,18.80
2023-01-12T04:48:09.178Z,8.57
2023-01-12T04:50:38.215Z,13.25
2023-01-12T04:53:08.801Z,11.07
2023-01-12T04:55:37.553Z,16.08
2023-01-12T04:58:05.628Z,9.05
2023-01-12T05:00:33.864Z,8.50
2023-01-12T05:03:02.455Z,11.20
2023-01-12T05:05:31.414Z,13.18
2023-01-12T05:08:26.346Z,11.55
2023-01-12T05:10:57.033Z,10.90
2023-01-12T05:13:26.658Z,12.95
2023-01-12T05:15:54.526Z,4.80
2023-01-12T05:18:22.737Z,8.88
2023-01-12T05:20:50.591Z,7.32
2023-01-12T05:23:18.354Z,8.38
2023-01-12T05:25:46.179Z,11.15
2023-01-12T05:28:15.743Z,15.10
2023-01-12T05:30:43.639Z,9.95
2023-01-12T05:33:15.768Z,6.10
2023-01-12T05:35:43.631Z,11.98
2023-01-12T05:38:11.538Z,10.50
2023-01-12T05:40:39.411Z,13.52
2023-01-12T05:43:24.683Z,10.65
2023-01-12T05:45:53.926Z,7.90
2023-01-12T05:48:21.783Z,7.60
2023-01-12T05:50:49.581Z,9.35
2023-01-12T05:53:17.319Z,7.38
2023-01-12T05:55:45.142Z,7.20
2023-01-12T05:58:12.894Z,6.50
2023-01-12T06:00:40.814Z,6.88
2023-01-12T06:03:10.063Z,10.38
2023-01-12T06:05:37.843Z,6.22
2023-01-12T06:08:06.163Z,10.38
2023-01-12T06:10:34.428Z,17.75
2023-01-12T06:13:19.764Z,6.35
2023-01-12T06:15:47.570Z,6.47
2023-01-12T06:18:17.449Z,6.35
2023-01-12T06:20:45.467Z,6.25
2023-01-12T06:23:13.229Z,5.07
2023-01-12T06:25:40.999Z,3.65
2023-01-12T06:28:08.946Z,5.30
2023-01-12T06:30:37.076Z,3.70
2023-01-12T06:33:09.437Z,7.88
2023-01-12T06:35:38.535Z,3.25
2023-01-12T06:38:06.487Z,4.40
2023-01-12T06:40:34.251Z,5.60
2023-01-12T06:43:01.965Z,5.10
2023-01-12T06:45:29.661Z,4.10
2023-01-12T06:47:57.521Z,5.82
2023-01-12T06:50:25.209Z,4.00
2023-01-12T06:52:55.689Z,5.07
2023-01-12T06:55:23.439Z,7.22
2023-01-12T06:57:51.225Z,3.30
2023-01-12T07:00:19.483Z,4.78
2023-01-12T07:02:50.545Z,2.85
2023-01-12T07:05:18.536Z,6.00
2023-01-12T07:07:46.301Z,6.75
2023-01-12T07:10:15.529Z,4.05
2023-01-12T07:12:43.295Z,4.30
2023-01-12T07:15:11.948Z,3.00
2023-01-12T07:17:40.296Z,5.15
2023-01-12T07:20:08.873Z,3.30
2023-01-12T07:22:36.642Z,6.00
2023-01-12T07:25:04.581Z,5.70
2023-01-12T07:27:33.699Z,4.40
2023-01-12T07:30:01.424Z,3.67
2023-01-12T07:32:29.859Z,3.33
2023-01-12T07:34:57.626Z,3.88
2023-01-12T07:37:25.493Z,3.85
2023-01-12T07:39:53.282Z,3.05
2023-01-12T07:42:26.021Z,3.25
2023-01-12T07:44:55.309Z,4.55
2023-01-12T07:47:23.175Z,2.67
2023-01-12T07:49:51.023Z,5.97
2023-01-12T07:52:18.749Z,3.15
2023-01-12T07:54:46.461Z,5.15
2023-01-12T07:57:14.257Z,2.13
2023-01-12T07:59:41.994Z,4.75
2023-01-12T08:02:16.466Z,2.78
2023-01-12T08:04:44.595Z,4.70
2023-01-12T08:07:12.784Z,4.50
2023-01-12T08:09:40.592Z,2.30
2023-01-12T08:12:08.525Z,2.60
2023-01-12T08:14:38.119Z,2.40
2023-01-12T08:17:08.834Z,3.17
2023-01-12T08:19:41.497Z,5.05
2023-01-12T08:22:15.917Z,3.42
2023-01-12T08:24:46.147Z,2.03
2023-01-12T08:27:13.952Z,2.20
2023-01-12T08:29:44.218Z,4.45
2023-01-12T08:32:13.767Z,2.38
2023-01-12T08:34:45.093Z,4.50
2023-01-12T08:37:14.306Z,4.38
2023-01-12T08:39:42.186Z,2.95
2023-01-12T08:42:10.148Z,3.83
2023-01-12T08:44:38.938Z,3.60
2023-01-12T08:47:07.505Z,6.60
2023-01-12T08:49:35.705Z,2.20
2023-01-12T08:52:05.066Z,3.25
2023-01-12T08:54:32.985Z,4.63
2023-01-12T08:57:00.765Z,3.15
2023-01-12T08:59:28.644Z,6.72
2023-01-12T09:01:56.514Z,2.72
2023-01-12T09:04:24.732Z,3.42
2023-01-12T09:06:52.685Z,4.07
2023-01-12T09:09:22.501Z,5.63
2023-01-12T09:11:51.395Z,2.70
2023-01-12T09:14:19.419Z,5.53
2023-01-12T09:16:47.416Z,3.55
2023-01-12T09:19:15.487Z,2.58
2023-01-12T09:21:43.766Z,1.95
2023-01-12T09:24:12.460Z,1.42
2023-01-12T09:26:45.056Z,2.35
2023-01-12T09:29:14.148Z,1.90
2023-01-12T09:31:43.685Z,2.40
2023-01-12T09:34:11.918Z,3.40
2023-01-12T09:36:40.892Z,1.85
2023-01-12T09:39:12.773Z,1.75
2023-01-12T09:42:05.805Z,2.45
2023-01-12T09:44:54.417Z,1.65
2023-01-12T09:47:29.296Z,1.63
2023-01-12T09:50:08.789Z,1.50
2023-01-12T09:52:40.501Z,1.30
2023-01-12T09:55:12.967Z,2.38
2023-01-12T09:57:56.873Z,3.00
2023-01-12T10:00:24.893Z,2.03
2023-01-12T10:02:56.009Z,1.30
2023-01-12T10:05:39.747Z,2.10
2023-01-12T10:08:16.075Z,1.40
2023-01-12T10:10:50.801Z,2.47
2023-01-12T10:13:20.312Z,3.72
2023-01-12T10:15:50.137Z,1.75
2023-01-12T10:18:22.555Z,2.45
2023-01-12T10:20:50.378Z,1.10
2023-01-12T10:23:24.737Z,0.90
2023-01-12T10:25:59.645Z,1.60
2023-01-12T10:28:30.627Z,1.38
2023-01-12T10:30:59.103Z,2.33
2023-01-12T10:33:28.679Z,3.05
2023-01-12T10:35:59.083Z,1.58
2023-01-12T10:38:29.687Z,0.80
2023-01-12T10:41:14.778Z,0.95
2023-01-12T10:43:45.822Z,1.02
2023-01-12T10:46:16.201Z,2.15
2023-01-12T10:48:45.575Z,0.98
2023-01-12T10:51:27.508Z,0.93
2023-01-12T10:53:58.812Z,1.08
2023-01-12T10:56:30.369Z,0.82
2023-01-12T10:59:02.563Z,0.73
2023-01-12T11:01:48.556Z,1.85
2023-01-12T11:04:21.411Z,1.83
2023-01-12T11:06:58.407Z,4.80
2023-01-12T11:09:28.752Z,1.20
2023-01-12T11:11:57.650Z,1.05
2023-01-12T11:14:30.264Z,1.00
2023-01-12T11:17:07.033Z,0.77
2023-01-12T11:19:38.441Z,1.08
2023-01-12T11:22:09.051Z,0.95
2023-01-12T11:24:42.377Z,0.77
2023-01-12T11:27:16.752Z,2.67
2023-01-12T11:29:54.464Z,0.40
2023-01-12T11:32:28.528Z,0.50
2023-01-12T11:37:25.180Z,0.82
2023-01-12T11:40:01.530Z,0.65
2023-01-12T11:42:48.956Z,1.17
2023-01-12T11:45:21.306Z,1.23
2023-01-12T11:47:52.371Z,0.68
2023-01-12T11:50:26.102Z,0.60
2023-01-12T11:52:56.708Z,0.55
2023-01-12T11:55:34.966Z,0.52
2023-01-12T11:58:08.746Z,1.25
2023-01-12T12:00:47.163Z,1.52
2023-01-12T12:03:33.629Z,0.95
2023-01-12T12:06:08.681Z,0.90
2023-01-12T12:08:45.669Z,2.13
2023-01-12T12:11:20.763Z,0.75
2023-01-12T12:13:54.586Z,0.85
2023-01-12T12:16:30.063Z,1.13
2023-01-12T12:19:10.424Z,0.40
2023-01-12T12:21:48.650Z,0.50
2023-01-12T12:24:27.221Z,0.70
2023-01-12T12:27:01.276Z,1.10
2023-01-12T12:29:40.950Z,0.80
2023-01-12T12:32:18.643Z,0.95
2023-01-12T12:35:06.516Z,1.73
2023-01-12T12:37:50.563Z,1.52
2023-01-12T12:40:26.791Z,1.55
2023-01-12T12:43:21.244Z,1.70
2023-01-12T12:45:52.859Z,0.73
2023-01-12T12:48:25.168Z,1.42
2023-01-12T12:51:00.260Z,0.80
2023-01-12T12:53:29.970Z,3.33
2023-01-12T12:56:00.225Z,1.60
2023-01-12T12:58:40.194Z,2.65
2023-01-12T13:01:44.608Z,2.80
2023-01-12T13:04:14.998Z,1.35
2023-01-12T13:06:48.627Z,2.92
2023-01-12T13:09:37.749Z,1.05
2023-01-12T13:12:20.761Z,2.53
2023-01-12T13:15:13.246Z,2.25
2023-01-12T13:17:42.952Z,3.30
2023-01-12T13:20:36.122Z,2.92
2023-01-12T13:23:04.477Z,1.70
2023-01-12T13:25:57.326Z,1.92
2023-01-12T13:28:25.131Z,2.83
2023-01-12T13:30:53.351Z,3.20
2023-01-12T13:33:26.764Z,3.20
2023-01-12T13:36:03.823Z,51.23
2023-01-12T13:38:56.199Z,30.02
2023-01-12T13:41:44.673Z,7.75
2023-01-12T13:44:16.736Z,2.97
2023-01-12T13:46:46.587Z,3.30
2023-01-12T13:49:26.555Z,8.77
2023-01-12T13:52:01.807Z,7.95
2023-01-12T13:54:30.345Z,7.22
2023-01-12T13:56:59.996Z,7.25
2023-01-12T13:59:30.123Z,12.52
2023-01-12T14:01:58.876Z,8.80
2023-01-12T14:05:02.559Z,3.45
2023-01-12T14:07:50.492Z,3.58
2023-01-12T14:10:29.401Z,3.00
2023-01-12T14:13:13.293Z,3.90
2023-01-12T14:15:59.931Z,2.60
2023-01-12T14:18:29.874Z,3.33
2023-01-12T14:20:58.807Z,5.03
2023-01-12T14:23:33.778Z,2.88
2023-01-12T14:26:07.020Z,3.50
2023-01-12T14:28:35.212Z,4.50
2023-01-12T14:31:03.592Z,3.13
2023-01-12T14:33:33.390Z,2.83
2023-01-12T14:36:05.468Z,2.55
2023-01-12T14:38:35.669Z,4.57
2023-01-12T14:41:06.661Z,13.20
2023-01-12T14:43:53.227Z,4.25
2023-01-12T14:46:28.503Z,2.30
2023-01-12T14:49:01.366Z,3.13
2023-01-12T14:51:35.295Z,4.68
2023-01-12T14:54:18.487Z,2.28
2023-01-12T14:56:50.640Z,1.63
2023-01-12T14:59:22.812Z,2.40
2023-01-12T15:01:51.758Z,6.72
2023-01-12T15:04:21.355Z,3.70
2023-01-12T15:07:01.100Z,2.00
2023-01-12T15:09:32.244Z,2.35
2023-01-12T15:12:00.494Z,2.70
2023-01-12T15:14:29.720Z,2.10
2023-01-12T15:17:23.567Z,3.60
2023-01-12T15:20:09.178Z,2.60
2023-01-12T15:22:54.472Z,3.08
2023-01-12T15:25:39.259Z,2.33
2023-01-12T15:28:08.703Z,2.30
2023-01-12T15:30:38.349Z,3.95
2023-01-12T15:33:06.687Z,2.28
2023-01-12T15:35:35.931Z,2.83
2023-01-12T15:38:09.001Z,2.05
2023-01-12T15:40:43.722Z,14.00
2023-01-12T15:43:15.358Z,18.75
2023-01-12T15:45:50.816Z,7.50
2023-01-12T15:48:19.216Z,19.02
2023-01-12T15:50:47.659Z,6.03
2023-01-12T15:53:18.325Z,6.18
2023-01-12T15:55:47.700Z,7.57
2023-01-12T15:58:17.066Z,4.70
2023-01-12T16:00:45.402Z,4.25
2023-01-12T16:03:28.973Z,4.32
2023-01-12T16:06:00.235Z,4.55
2023-01-12T16:08:28.069Z,3.15
2023-01-12T16:11:13.603Z,2.38
2023-01-12T16:13:41.993Z,2.97
2023-01-12T16:16:12.587Z,3.47
2023-01-12T16:18:40.331Z,2.53
2023-01-12T16:21:08.197Z,3.90
2023-01-12T16:23:36.246Z,2.88
2023-01-12T16:26:05.942Z,3.17
2023-01-12T16:28:34.109Z,2.50
2023-01-12T16:31:06.845Z,1.88
2023-01-12T16:33:34.683Z,3.47
2023-01-12T16:36:02.598Z,2.20
2023-01-12T16:38:30.433Z,4.53
2023-01-12T16:40:58.377Z,3.05
2023-01-12T16:43:27.566Z,4.47
2023-01-12T16:45:55.444Z,3.05
2023-01-12T16:48:23.318Z,2.72
2023-01-12T16:50:51.182Z,3.55
2023-01-12T16:53:18.931Z,3.17
2023-01-12T16:55:46.729Z,2.00
2023-01-12T16:58:14.446Z,2.30
2023-01-12T17:00:43.840Z,2.42
2023-01-12T17:03:14.210Z,2.28
2023-01-12T17:05:43.225Z,1.80
2023-01-12T17:08:11.128Z,1.88
2023-01-12T17:10:39.067Z,3.00
2023-01-12T17:13:07.144Z,2.83
2023-01-12T17:15:36.063Z,2.60
2023-01-12T17:18:05.664Z,1.45
2023-01-12T17:20:33.589Z,1.73
2023-01-12T17:23:01.617Z,2.72
2023-01-12T17:25:29.711Z,2.95
2023-01-12T17:27:57.440Z,3.05
2023-01-12T17:30:25.307Z,3.08
2023-01-12T17:32:53.762Z,6.55
2023-01-12T17:35:22.867Z,3.05
2023-01-12T17:37:50.771Z,2.95
2023-01-12T17:40:18.755Z,2.17
2023-01-12T17:43:07.848Z,2.50
2023-01-12T17:45:42.414Z,2.17
2023-01-12T17:48:10.384Z,2.53
2023-01-12T17:50:41.182Z,2.30
2023-01-12T17:53:09.540Z,2.20
2023-01-12T17:55:47.534Z,3.42
2023-01-12T17:58:17.461Z,2.40
2023-01-12T18:00:45.617Z,5.68
2023-01-12T18:03:13.598Z,3.17
2023-01-12T18:05:47.024Z,3.33
2023-01-12T18:08:15.152Z,3.15
2023-01-12T18:10:42.875Z,2.78
2023-01-12T18:13:12.798Z,3.10
2023-01-12T18:15:41.190Z,4.60
2023-01-12T18:18:08.991Z,4.35
2023-01-12T18:20:36.681Z,4.97
2023-01-12T18:23:06.282Z,3.63
2023-01-12T18:25:36.911Z,9.73
2023-01-12T18:28:05.144Z,13.18
2023-01-12T18:30:32.999Z,16.80
2023-01-12T18:33:00.758Z,5.93
2023-01-12T18:35:28.499Z,5.55
2023-01-12T18:37:56.333Z,4.93
2023-01-12T18:40:30.472Z,3.22
2023-01-12T18:45:28.643Z,5.57
2023-01-12T18:48:21.194Z,4.45
2023-01-12T18:51:12.134Z,3.80
2023-01-12T18:53:41.847Z,3.70
2023-01-12T18:56:14.509Z,5.90
2023-01-12T18:58:45.233Z,5.22
2023-01-12T19:01:19.260Z,3.55
2023-01-12T19:03:47.340Z,4.13
2023-01-12T19:06:34.904Z,3.92
2023-01-12T19:09:20.163Z,5.15
2023-01-12T19:11:49.385Z,3.80
2023-01-12T19:14:34.675Z,3.97
2023-01-12T19:17:20.182Z,3.10
2023-01-12T19:19:48.028Z,4.97
2023-01-12T19:22:33.434Z,3.40
2023-01-12T19:25:19.082Z,5.13
2023-01-12T19:28:05.682Z,3.80
2023-01-12T19:30:34.094Z,6.10
2023-01-12T19:33:03.704Z,5.97
2023-01-12T19:35:31.523Z,4.75
2023-01-12T19:37:59.460Z,7.38
2023-01-12T19:40:33.713Z,4.18
2023-01-12T19:43:13.741Z,6.05
2023-01-12T19:45:43.027Z,5.88
2023-01-12T19:48:11.463Z,39.05
2023-01-12T19:50:39.899Z,6.80
2023-01-12T19:53:09.775Z,6.00
2023-01-12T19:55:37.729Z,6.80
2023-01-12T19:58:08.826Z,6.38
2023-01-12T20:00:37.839Z,5.90
2023-01-12T20:03:05.685Z,8.25
2023-01-12T20:05:33.612Z,6.47
2023-01-12T20:08:01.396Z,5.50
2023-01-12T20:10:29.370Z,5.68
2023-01-12T20:12:57.566Z,4.60
2023-01-12T20:15:26.936Z,4.53
2023-01-12T20:17:56.478Z,4.57
2023-01-12T20:20:24.288Z,4.07
2023-01-12T20:22:52.154Z,3.22
2023-01-12T20:25:20.777Z,4.80
2023-01-12T20:27:49.240Z,5.40
2023-01-12T20:30:25.324Z,3.75
2023-01-12T20:33:01.711Z,5.35
2023-01-12T20:35:29.456Z,6.93
2023-01-12T20:37:57.283Z,4.43
2023-01-12T20:40:25.124Z,6.95
2023-01-12T20:42:52.988Z,6.70
2023-01-12T20:45:21.060Z,6.60
2023-01-12T20:47:48.885Z,4.40
2023-01-12T20:50:19.078Z,4.32
2023-01-12T20:52:48.090Z,7.13
2023-01-12T20:55:16.324Z,6.38
2023-01-12T20:57:44.076Z,7.50
2023-01-12T21:00:14.117Z,7.70
2023-01-12T21:02:42.087Z,5.20
2023-01-12T21:05:10.246Z,5.85
2023-01-12T21:07:39.409Z,6.63
2023-01-12T21:10:09.253Z,6.60
2023-01-12T21:12:36.991Z,5.45
2023-01-12T21:15:06.180Z,6.10
2023-01-12T21:17:35.920Z,5.95
2023-01-12T21:20:03.726Z,5.50
2023-01-12T21:22:31.560Z,3.78
2023-01-12T21:25:00.799Z,8.30
2023-01-12T21:27:28.825Z,8.93
2023-01-12T21:29:57.068Z,3.58
2023-01-12T21:32:27.102Z,5.57
2023-01-12T21:34:54.963Z,4.60
2023-01-12T21:37:22.943Z,5.85
2023-01-12T21:39:50.682Z,6.07
2023-01-12T21:42:37.507Z,4.57
2023-01-12T21:45:06.238Z,7.35
2023-01-12T21:47:34.323Z,8.38
2023-01-12T21:50:02.135Z,5.78
2023-01-12T21:52:33.008Z,4.85
2023-01-12T21:55:01.085Z,4.82
2023-01-12T21:57:30.619Z,6.55
2023-01-12T21:59:58.472Z,6.20
2023-01-12T22:02:26.653Z,12.88
2023-01-12T22:04:54.561Z,10.82
2023-01-12T22:07:22.379Z,10.98
2023-01-12T22:09:50.118Z,12.95
2023-01-12T22:12:17.969Z,9.90
2023-01-12T22:14:47.037Z,8.65
2023-01-12T22:17:14.903Z,13.40
2023-01-12T22:19:43.141Z,14.77
2023-01-12T22:22:11.003Z,14.15
2023-01-12T22:24:38.848Z,10.98
2023-01-12T22:27:06.661Z,16.67
2023-01-12T22:29:34.429Z,14.40
2023-01-12T22:32:03.759Z,14.63
2023-01-12T22:34:31.845Z,17.17
2023-01-12T22:36:59.593Z,11.98
2023-01-12T22:39:27.473Z,14.45
2023-01-12T22:41:55.240Z,23.08
2023-01-12T22:44:24.994Z,11.60
2023-01-12T22:46:52.881Z,18.27
2023-01-12T22:49:22.173Z,9.73
2023-01-12T22:51:49.918Z,12.98
2023-01-12T22:54:17.762Z,18.02
2023-01-12T22:56:46.459Z,16.33
2023-01-12T22:59:14.355Z,22.95
2023-01-12T23:01:42.110Z,19.25
2023-01-12T23:04:12.809Z,22.42
2023-01-12T23:06:42.622Z,27.08
2023-01-12T23:09:11.766Z,20.95
2023-01-12T23:11:39.672Z,20.45
2023-01-12T23:14:08.234Z,17.08
2023-01-12T23:16:36.068Z,18.48
2023-01-12T23:19:04.273Z,13.25
2023-01-12T23:21:32.247Z,23.85
2023-01-12T23:24:01.501Z,17.52
2023-01-12T23:26:31.213Z,12.35
2023-01-12T23:29:03.122Z,23.48
2023-01-12T23:31:32.913Z,34.33
2023-01-12T23:34:01.299Z,53.08
2023-01-12T23:36:30.464Z,163.95
2023-01-12T23:38:59.709Z,92.13
2023-01-12T23:41:30.570Z,86.22
2023-01-12T23:44:00.305Z,72.03
2023-01-12T23:46:28.697Z,37.28
2023-01-12T23:48:57.884Z,36.25
2023-01-12T23:51:27.089Z,22.17
2023-01-12T23:53:55.222Z,32.83
2023-01-12T23:56:23.733Z,27.52
2023-01-12T23:58:53.152Z,37.40
